sensor_id;sensor_type;location;lat;lon;timestamp;P1;P2;P0
12542;PMS3003;6337;49.556;25.594;2023-03-01T00:52:26;30.83;17.60;
12542;PMS3003;6337;49.556;25.594;2023-03-01T00:55:07;39.13;20.58;
12542;PMS3003;6337;49.556;25.594;2023-03-01T01:07:04;41.08;21.20;
12542;PMS3003;6337;49.556;25.594;2023-03-01T02:28:25;22.27;13.00;
12542;PMS3003;6337;49.556;25.594;2023-03-01T02:31:19;21.52;12.25;
12542;PMS3003;6337;49.556;25.594;2023-03-01T02:40:35;23.95;13.30;
12542;PMS3003;6337;49.556;25.594;2023-03-01T02:49:59;16.95;11.15;
12542;PMS3003;6337;49.556;25.594;2023-03-01T02:55:41;17.13;12.00;
12542;PMS3003;6337;49.556;25.594;2023-03-01T03:04:22;13.80;10.93;
12542;PMS3003;6337;49.556;25.594;2023-03-01T03:09:55;23.73;12.55;
12542;PMS3003;6337;49.556;25.594;2023-03-01T03:12:27;17.40;11.15;
12542;PMS3003;6337;49.556;25.594;2023-03-01T03:14:55;19.50;11.25;
12542;PMS3003;6337;49.556;25.594;2023-03-01T03:23:30;17.38;10.63;
12542;PMS3003;6337;49.556;25.594;2023-03-01T03:44:19;28.08;13.13;
12542;PMS3003;6337;49.556;25.594;2023-03-01T03:46:47;26.75;13.48;
12542;PMS3003;6337;49.556;25.594;2023-03-01T03:49:16;24.00;12.95;
12542;PMS3003;6337;49.556;25.594;2023-03-01T03:51:44;23.35;11.10;
12542;PMS3003;6337;49.556;25.594;2023-03-01T03:54:23;19.33;10.68;
12542;PMS3003;6337;49.556;25.594;2023-03-01T04:00:00;29.80;13.18;
12542;PMS3003;6337;49.556;25.594;2023-03-01T04:02:30;21.83;12.70;
12542;PMS3003;6337;49.556;25.594;2023-03-01T04:04:58;34.40;15.07;
12542;PMS3003;6337;49.556;25.594;2023-03-01T04:07:32;25.45;12.63;
12542;PMS3003;6337;49.556;25.594;2023-03-01T04:10:00;27.08;12.80;
12542;PMS3003;6337;49.556;25.594;2023-03-01T04:12:29;27.63;14.07;
12542;PMS3003;6337;49.556;25.594;2023-03-01T04:15:01;27.13;13.82;
12542;PMS3003;6337;49.556;25.594;2023-03-01T04:17:38;23.08;13.93;
12542;PMS3003;6337;49.556;25.594;2023-03-01T04:20:09;32.90;14.38;
12542;PMS3003;6337;49.556;25.594;2023-03-01T04:22:39;33.97;13.68;
12542;PMS3003;6337;49.556;25.594;2023-03-01T04:25:07;25.48;13.32;
12542;PMS3003;6337;49.556;25.594;2023-03-01T04:27:39;24.67;12.55;
12542;PMS3003;6337;49.556;25.594;2023-03-01T04:33:36;25.60;12.65;
12542;PMS3003;6337;49.556;25.594;2023-03-01T04:36:28;22.90;12.75;
12542;PMS3003;6337;49.556;25.594;2023-03-01T04:45:09;27.33;13.35;
12542;PMS3003;6337;49.556;25.594;2023-03-01T04:47:43;25.63;15.82;
12542;PMS3003;6337;49.556;25.594;2023-03-01T04:50:28;28.00;13.82;
12542;PMS3003;6337;49.556;25.594;2023-03-01T04:52:55;19.73;12.80;
12542;PMS3003;6337;49.556;25.594;2023-03-01T04:55:26;28.10;15.70;
12542;PMS3003;6337;49.556;25.594;2023-03-01T04:57:55;30.77;15.75;
12542;PMS3003;6337;49.556;25.594;2023-03-01T05:00:23;25.70;14.65;
12542;PMS3003;6337;49.556;25.594;2023-03-01T05:02:52;26.52;14.35;
12542;PMS3003;6337;49.556;25.594;2023-03-01T05:05:21;35.92;17.23;
12542;PMS3003;6337;49.556;25.594;2023-03-01T05:07:53;40.17;17.70;
12542;PMS3003;6337;49.556;25.594;2023-03-01T05:10:22;30.98;15.57;
12542;PMS3003;6337;49.556;25.594;2023-03-01T05:12:51;30.45;16.27;
12542;PMS3003;6337;49.556;25.594;2023-03-01T05:15:21;34.67;17.55;
12542;PMS3003;6337;49.556;25.594;2023-03-01T05:17:59;25.52;15.13;
12542;PMS3003;6337;49.556;25.594;2023-03-01T05:23:38;29.10;15.45;
12542;PMS3003;6337;49.556;25.594;2023-03-01T05:35:13;32.03;16.95;
12542;PMS3003;6337;49.556;25.594;2023-03-01T05:37:42;45.65;19.95;
12542;PMS3003;6337;49.556;25.594;2023-03-01T05:40:17;41.10;20.08;
12542;PMS3003;6337;49.556;25.594;2023-03-01T05:42:45;34.55;20.05;
12542;PMS3003;6337;49.556;25.594;2023-03-01T05:45:14;41.00;20.13;
12542;PMS3003;6337;49.556;25.594;2023-03-01T05:47:43;29.85;16.98;
12542;PMS3003;6337;49.556;25.594;2023-03-01T05:50:12;41.97;17.48;
12542;PMS3003;6337;49.556;25.594;2023-03-01T06:08:15;33.50;16.95;
12542;PMS3003;6337;49.556;25.594;2023-03-01T06:17:01;26.80;13.88;
12542;PMS3003;6337;49.556;25.594;2023-03-01T06:22:35;34.67;14.60;
12542;PMS3003;6337;49.556;25.594;2023-03-01T06:28:25;28.30;14.55;
12542;PMS3003;6337;49.556;25.594;2023-03-01T06:34:01;36.42;16.85;
12542;PMS3003;6337;49.556;25.594;2023-03-01T07:04:55;33.83;15.70;
12542;PMS3003;6337;49.556;25.594;2023-03-01T07:07:46;24.35;14.88;
12542;PMS3003;6337;49.556;25.594;2023-03-01T07:10:15;41.15;16.05;
12542;PMS3003;6337;49.556;25.594;2023-03-01T07:12:49;30.27;15.05;
12542;PMS3003;6337;49.556;25.594;2023-03-01T07:15:22;29.60;16.27;
12542;PMS3003;6337;49.556;25.594;2023-03-01T07:33:18;28.50;15.95;
12542;PMS3003;6337;49.556;25.594;2023-03-01T07:45:18;34.88;17.45;
12542;PMS3003;6337;49.556;25.594;2023-03-01T07:48:10;31.63;18.00;
12542;PMS3003;6337;49.556;25.594;2023-03-01T07:50:59;36.50;19.95;
12542;PMS3003;6337;49.556;25.594;2023-03-01T07:53:27;34.83;20.52;
12542;PMS3003;6337;49.556;25.594;2023-03-01T07:56:22;37.20;19.40;
12542;PMS3003;6337;49.556;25.594;2023-03-01T07:59:29;33.40;16.88;
12542;PMS3003;6337;49.556;25.594;2023-03-01T08:02:20;45.58;21.63;
12542;PMS3003;6337;49.556;25.594;2023-03-01T08:05:12;38.50;19.27;
12542;PMS3003;6337;49.556;25.594;2023-03-01T08:08:06;35.03;17.45;
12542;PMS3003;6337;49.556;25.594;2023-03-01T08:11:01;36.25;19.88;
12542;PMS3003;6337;49.556;25.594;2023-03-01T08:13:52;36.65;19.98;
12542;PMS3003;6337;49.556;25.594;2023-03-01T08:16:43;44.15;22.52;
12542;PMS3003;6337;49.556;25.594;2023-03-01T08:19:34;36.13;20.98;
12542;PMS3003;6337;49.556;25.594;2023-03-01T08:22:25;38.83;18.13;
12542;PMS3003;6337;49.556;25.594;2023-03-01T08:24:58;33.00;18.38;
12542;PMS3003;6337;49.556;25.594;2023-03-01T08:27:25;39.22;18.38;
12542;PMS3003;6337;49.556;25.594;2023-03-01T08:29:53;36.00;20.50;
12542;PMS3003;6337;49.556;25.594;2023-03-01T08:35:42;33.20;20.55;
12542;PMS3003;6337;49.556;25.594;2023-03-01T08:38:21;29.58;17.95;
12542;PMS3003;6337;49.556;25.594;2023-03-01T08:50:02;47.28;21.10;
12542;PMS3003;6337;49.556;25.594;2023-03-01T08:52:29;32.72;19.95;
12542;PMS3003;6337;49.556;25.594;2023-03-01T08:54:57;37.55;18.88;
12542;PMS3003;6337;49.556;25.594;2023-03-01T08:57:30;34.50;20.75;
12542;PMS3003;6337;49.556;25.594;2023-03-01T08:59:58;46.67;20.92;
12542;PMS3003;6337;49.556;25.594;2023-03-01T09:02:32;35.85;20.10;
12542;PMS3003;6337;49.556;25.594;2023-03-01T09:14:23;45.40;20.95;
12542;PMS3003;6337;49.556;25.594;2023-03-01T09:16:50;40.95;18.40;
12542;PMS3003;6337;49.556;25.594;2023-03-01T09:19:19;31.90;18.33;
12542;PMS3003;6337;49.556;25.594;2023-03-01T09:28:25;34.13;17.90;
12542;PMS3003;6337;49.556;25.594;2023-03-01T09:34:01;31.10;15.52;
12542;PMS3003;6337;49.556;25.594;2023-03-01T09:36:29;29.20;17.30;
12542;PMS3003;6337;49.556;25.594;2023-03-01T09:38:58;38.73;16.33;
12542;PMS3003;6337;49.556;25.594;2023-03-01T09:41:35;28.53;15.10;
12542;PMS3003;6337;49.556;25.594;2023-03-01T09:44:07;27.03;16.03;
12542;PMS3003;6337;49.556;25.594;2023-03-01T09:46:40;22.80;15.82;
12542;PMS3003;6337;49.556;25.594;2023-03-01T09:49:13;19.58;12.68;
12542;PMS3003;6337;49.556;25.594;2023-03-01T09:51:47;36.40;15.73;
12542;PMS3003;6337;49.556;25.594;2023-03-01T09:54:18;19.65;13.88;
12542;PMS3003;6337;49.556;25.594;2023-03-01T09:56:46;26.90;14.23;
12542;PMS3003;6337;49.556;25.594;2023-03-01T09:59:23;28.23;14.32;
12542;PMS3003;6337;49.556;25.594;2023-03-01T10:01:55;26.03;11.40;
12542;PMS3003;6337;49.556;25.594;2023-03-01T10:04:32;26.13;13.82;
12542;PMS3003;6337;49.556;25.594;2023-03-01T10:07:17;30.17;15.27;
12542;PMS3003;6337;49.556;25.594;2023-03-01T10:09:47;27.95;15.27;
12542;PMS3003;6337;49.556;25.594;2023-03-01T10:12:16;35.00;19.52;
12542;PMS3003;6337;49.556;25.594;2023-03-01T10:14:48;35.03;17.85;
12542;PMS3003;6337;49.556;25.594;2023-03-01T10:17:23;32.13;16.83;
12542;PMS3003;6337;49.556;25.594;2023-03-01T10:19:54;31.10;16.20;
12542;PMS3003;6337;49.556;25.594;2023-03-01T10:22:24;31.47;16.20;
12542;PMS3003;6337;49.556;25.594;2023-03-01T10:24:56;25.08;13.18;
12542;PMS3003;6337;49.556;25.594;2023-03-01T10:27:29;25.73;14.67;
12542;PMS3003;6337;49.556;25.594;2023-03-01T10:30:02;26.60;14.20;
12542;PMS3003;6337;49.556;25.594;2023-03-01T10:32:33;24.90;14.57;
12542;PMS3003;6337;49.556;25.594;2023-03-01T10:35:17;29.25;14.25;
12542;PMS3003;6337;49.556;25.594;2023-03-01T10:40:35;29.87;16.10;
12542;PMS3003;6337;49.556;25.594;2023-03-01T10:43:04;27.20;15.00;
12542;PMS3003;6337;49.556;25.594;2023-03-01T10:45:34;24.10;14.97;
12542;PMS3003;6337;49.556;25.594;2023-03-01T10:54:02;24.70;12.77;
12542;PMS3003;6337;49.556;25.594;2023-03-01T10:56:33;20.60;12.43;
12542;PMS3003;6337;49.556;25.594;2023-03-01T10:59:24;22.80;13.80;
12542;PMS3003;6337;49.556;25.594;2023-03-01T11:02:07;24.70;15.63;
12542;PMS3003;6337;49.556;25.594;2023-03-01T11:04:39;27.27;12.57;
12542;PMS3003;6337;49.556;25.594;2023-03-01T11:07:11;23.93;14.50;
12542;PMS3003;6337;49.556;25.594;2023-03-01T11:09:50;26.13;15.17;
12542;PMS3003;6337;49.556;25.594;2023-03-01T11:12:18;23.83;13.17;
12542;PMS3003;6337;49.556;25.594;2023-03-01T11:14:46;26.10;14.70;
12542;PMS3003;6337;49.556;25.594;2023-03-01T11:17:15;27.43;16.60;
12542;PMS3003;6337;49.556;25.594;2023-03-01T11:19:48;25.37;14.60;
12542;PMS3003;6337;49.556;25.594;2023-03-01T11:22:31;23.20;11.07;
12542;PMS3003;6337;49.556;25.594;2023-03-01T11:25:05;19.33;11.57;
12542;PMS3003;6337;49.556;25.594;2023-03-01T11:27:35;17.87;11.23;
12542;PMS3003;6337;49.556;25.594;2023-03-01T11:30:05;23.63;12.60;
12542;PMS3003;6337;49.556;25.594;2023-03-01T11:32:36;22.13;13.17;
12542;PMS3003;6337;49.556;25.594;2023-03-01T11:35:09;15.93;9.40;
12542;PMS3003;6337;49.556;25.594;2023-03-01T11:37:41;16.67;10.57;
12542;PMS3003;6337;49.556;25.594;2023-03-01T11:40:15;21.77;11.50;
12542;PMS3003;6337;49.556;25.594;2023-03-01T11:42:59;23.23;9.87;
12542;PMS3003;6337;49.556;25.594;2023-03-01T11:45:31;20.43;11.03;
12542;PMS3003;6337;49.556;25.594;2023-03-01T12:14:49;12.73;8.23;
12542;PMS3003;6337;49.556;25.594;2023-03-01T12:17:51;15.07;9.03;
12542;PMS3003;6337;49.556;25.594;2023-03-01T12:20:46;20.90;10.20;
12542;PMS3003;6337;49.556;25.594;2023-03-01T12:26:58;15.10;8.57;
12542;PMS3003;6337;49.556;25.594;2023-03-01T12:33:13;18.57;9.33;
12542;PMS3003;6337;49.556;25.594;2023-03-01T12:36:22;14.00;8.80;
12542;PMS3003;6337;49.556;25.594;2023-03-01T12:39:24;19.60;9.57;
12542;PMS3003;6337;49.556;25.594;2023-03-01T12:42:22;16.20;9.63;
12542;PMS3003;6337;49.556;25.594;2023-03-01T12:48:06;18.73;9.33;
12542;PMS3003;6337;49.556;25.594;2023-03-01T12:50:40;20.60;10.53;
12542;PMS3003;6337;49.556;25.594;2023-03-01T12:53:16;17.87;9.50;
12542;PMS3003;6337;49.556;25.594;2023-03-01T12:55:45;17.03;9.00;
12542;PMS3003;6337;49.556;25.594;2023-03-01T12:58:15;12.83;8.50;
12542;PMS3003;6337;49.556;25.594;2023-03-01T13:00:50;16.10;10.00;
12542;PMS3003;6337;49.556;25.594;2023-03-01T13:03:23;16.67;9.50;
12542;PMS3003;6337;49.556;25.594;2023-03-01T13:08:46;17.80;10.00;
12542;PMS3003;6337;49.556;25.594;2023-03-01T13:11:16;21.63;9.27;
12542;PMS3003;6337;49.556;25.594;2023-03-01T13:13:45;18.43;10.37;
12542;PMS3003;6337;49.556;25.594;2023-03-01T13:16:20;15.57;9.10;
12542;PMS3003;6337;49.556;25.594;2023-03-01T13:18:56;12.03;8.80;
12542;PMS3003;6337;49.556;25.594;2023-03-01T13:21:36;17.93;10.00;
12542;PMS3003;6337;49.556;25.594;2023-03-01T13:24:22;13.00;8.97;
12542;PMS3003;6337;49.556;25.594;2023-03-01T13:27:10;19.63;11.40;
12542;PMS3003;6337;49.556;25.594;2023-03-01T13:29:44;16.07;10.00;
12542;PMS3003;6337;49.556;25.594;2023-03-01T13:32:18;25.93;9.50;
12542;PMS3003;6337;49.556;25.594;2023-03-01T13:37:33;14.07;10.77;
12542;PMS3003;6337;49.556;25.594;2023-03-01T13:40:07;19.00;10.63;
12542;PMS3003;6337;49.556;25.594;2023-03-01T13:42:53;21.53;10.50;
12542;PMS3003;6337;49.556;25.594;2023-03-01T13:54:09;18.67;10.50;
12542;PMS3003;6337;49.556;25.594;2023-03-01T13:56:41;22.83;10.67;
12542;PMS3003;6337;49.556;25.594;2023-03-01T13:59:17;17.77;9.97;
12542;PMS3003;6337;49.556;25.594;2023-03-01T14:01:54;26.30;12.20;
12542;PMS3003;6337;49.556;25.594;2023-03-01T14:04:29;19.73;10.67;
12542;PMS3003;6337;49.556;25.594;2023-03-01T14:07:10;16.37;10.80;
12542;PMS3003;6337;49.556;25.594;2023-03-01T14:09:42;41.23;11.97;
12542;PMS3003;6337;49.556;25.594;2023-03-01T14:12:23;27.47;11.03;
12542;PMS3003;6337;49.556;25.594;2023-03-01T14:15:44;20.07;11.63;
12542;PMS3003;6337;49.556;25.594;2023-03-01T14:21:42;25.73;11.20;
12542;PMS3003;6337;49.556;25.594;2023-03-01T14:27:21;18.33;9.63;
12542;PMS3003;6337;49.556;25.594;2023-03-01T14:29:54;18.10;8.50;
12542;PMS3003;6337;49.556;25.594;2023-03-01T14:35:27;16.93;8.97;
12542;PMS3003;6337;49.556;25.594;2023-03-01T14:38:03;12.20;9.00;
12542;PMS3003;6337;49.556;25.594;2023-03-01T14:40:32;16.20;8.93;
12542;PMS3003;6337;49.556;25.594;2023-03-01T14:43:11;13.40;9.20;
12542;PMS3003;6337;49.556;25.594;2023-03-01T14:45:57;16.10;9.10;
12542;PMS3003;6337;49.556;25.594;2023-03-01T14:58:45;21.60;10.47;
12542;PMS3003;6337;49.556;25.594;2023-03-01T15:05:05;20.03;9.13;
12542;PMS3003;6337;49.556;25.594;2023-03-01T15:07:51;17.70;7.73;
12542;PMS3003;6337;49.556;25.594;2023-03-01T15:12:51;11.00;6.33;
12542;PMS3003;6337;49.556;25.594;2023-03-01T15:27:27;11.03;5.87;
12542;PMS3003;6337;49.556;25.594;2023-03-01T15:29:55;18.37;6.40;
12542;PMS3003;6337;49.556;25.594;2023-03-01T15:32:30;7.50;6.20;
12542;PMS3003;6337;49.556;25.594;2023-03-01T15:45:06;14.20;7.30;
12542;PMS3003;6337;49.556;25.594;2023-03-01T16:11:52;16.50;9.27;
12542;PMS3003;6337;49.556;25.594;2023-03-01T16:20:34;17.80;9.20;
12542;PMS3003;6337;49.556;25.594;2023-03-01T16:23:04;15.57;9.80;
12542;PMS3003;6337;49.556;25.594;2023-03-01T16:25:32;16.77;9.53;
12542;PMS3003;6337;49.556;25.594;2023-03-01T16:28:04;18.60;10.37;
12542;PMS3003;6337;49.556;25.594;2023-03-01T16:33:59;16.80;9.27;
12542;PMS3003;6337;49.556;25.594;2023-03-01T16:39:37;20.80;11.37;
12542;PMS3003;6337;49.556;25.594;2023-03-01T16:42:09;26.43;12.23;
12542;PMS3003;6337;49.556;25.594;2023-03-01T16:44:43;19.83;12.40;
12542;PMS3003;6337;49.556;25.594;2023-03-01T16:47:11;19.00;12.20;
12542;PMS3003;6337;49.556;25.594;2023-03-01T16:49:39;23.03;11.70;
12542;PMS3003;6337;49.556;25.594;2023-03-01T16:52:08;15.30;10.13;
12542;PMS3003;6337;49.556;25.594;2023-03-01T16:54:36;16.07;10.40;
12542;PMS3003;6337;49.556;25.594;2023-03-01T16:57:04;19.13;9.60;
12542;PMS3003;6337;49.556;25.594;2023-03-01T16:59:33;15.60;9.67;
12542;PMS3003;6337;49.556;25.594;2023-03-01T17:02:04;13.67;9.37;
12542;PMS3003;6337;49.556;25.594;2023-03-01T17:04:34;16.60;9.73;
12542;PMS3003;6337;49.556;25.594;2023-03-01T17:07:02;23.30;9.70;
12542;PMS3003;6337;49.556;25.594;2023-03-01T17:09:29;16.80;10.70;
12542;PMS3003;6337;49.556;25.594;2023-03-01T17:11:58;31.17;11.63;
12542;PMS3003;6337;49.556;25.594;2023-03-01T17:14:29;18.40;10.73;
12542;PMS3003;6337;49.556;25.594;2023-03-01T17:16:59;23.67;11.30;
12542;PMS3003;6337;49.556;25.594;2023-03-01T17:19:31;14.20;10.37;
12542;PMS3003;6337;49.556;25.594;2023-03-01T17:22:01;27.13;13.07;
12542;PMS3003;6337;49.556;25.594;2023-03-01T17:24:42;18.67;11.50;
12542;PMS3003;6337;49.556;25.594;2023-03-01T17:27:11;21.95;13.07;
12542;PMS3003;6337;49.556;25.594;2023-03-01T17:29:41;18.23;11.13;
12542;PMS3003;6337;49.556;25.594;2023-03-01T17:32:10;29.53;11.13;
12542;PMS3003;6337;49.556;25.594;2023-03-01T17:34:40;19.20;11.03;
12542;PMS3003;6337;49.556;25.594;2023-03-01T17:37:07;22.35;11.27;
12542;PMS3003;6337;49.556;25.594;2023-03-01T17:39:40;21.08;11.10;
12542;PMS3003;6337;49.556;25.594;2023-03-01T17:42:08;15.37;10.87;
12542;PMS3003;6337;49.556;25.594;2023-03-01T17:44:37;21.77;11.82;
12542;PMS3003;6337;49.556;25.594;2023-03-01T17:47:05;24.63;13.20;
12542;PMS3003;6337;49.556;25.594;2023-03-01T17:49:34;26.50;12.37;
12542;PMS3003;6337;49.556;25.594;2023-03-01T17:52:09;23.45;11.60;
12542;PMS3003;6337;49.556;25.594;2023-03-01T17:54:42;22.30;11.90;
12542;PMS3003;6337;49.556;25.594;2023-03-01T17:57:20;28.85;13.32;
12542;PMS3003;6337;49.556;25.594;2023-03-01T18:00:21;23.97;11.93;
12542;PMS3003;6337;49.556;25.594;2023-03-01T18:02:49;17.25;10.73;
12542;PMS3003;6337;49.556;25.594;2023-03-01T18:05:17;20.13;10.30;
12542;PMS3003;6337;49.556;25.594;2023-03-01T18:07:50;22.70;10.40;
12542;PMS3003;6337;49.556;25.594;2023-03-01T18:10:18;24.23;11.30;
12542;PMS3003;6337;49.556;25.594;2023-03-01T18:12:47;15.43;10.83;
12542;PMS3003;6337;49.556;25.594;2023-03-01T18:15:14;21.90;13.17;
12542;PMS3003;6337;49.556;25.594;2023-03-01T18:17:47;18.13;10.63;
12542;PMS3003;6337;49.556;25.594;2023-03-01T18:20:16;22.55;12.95;
12542;PMS3003;6337;49.556;25.594;2023-03-01T18:22:43;30.17;14.25;
12542;PMS3003;6337;49.556;25.594;2023-03-01T18:25:15;20.90;13.23;
12542;PMS3003;6337;49.556;25.594;2023-03-01T18:27:43;23.60;12.88;
12542;PMS3003;6337;49.556;25.594;2023-03-01T18:30:12;19.80;13.38;
12542;PMS3003;6337;49.556;25.594;2023-03-01T18:32:40;32.70;13.40;
12542;PMS3003;6337;49.556;25.594;2023-03-01T18:35:12;21.33;13.10;
12542;PMS3003;6337;49.556;25.594;2023-03-01T18:37:42;20.80;12.60;
12542;PMS3003;6337;49.556;25.594;2023-03-01T18:40:09;23.02;12.52;
12542;PMS3003;6337;49.556;25.594;2023-03-01T18:42:45;24.40;11.98;
12542;PMS3003;6337;49.556;25.594;2023-03-01T18:45:13;27.27;13.73;
12542;PMS3003;6337;49.556;25.594;2023-03-01T18:47:42;24.20;13.27;
12542;PMS3003;6337;49.556;25.594;2023-03-01T18:50:15;23.53;12.57;
12542;PMS3003;6337;49.556;25.594;2023-03-01T18:52:43;17.20;12.07;
12542;PMS3003;6337;49.556;25.594;2023-03-01T18:55:17;30.77;11.32;
12542;PMS3003;6337;49.556;25.594;2023-03-01T18:57:47;19.23;11.30;
12542;PMS3003;6337;49.556;25.594;2023-03-01T19:00:16;30.05;16.17;
12542;PMS3003;6337;49.556;25.594;2023-03-01T19:02:47;32.95;14.50;
12542;PMS3003;6337;49.556;25.594;2023-03-01T19:05:15;21.63;13.00;
12542;PMS3003;6337;49.556;25.594;2023-03-01T19:07:43;31.33;15.90;
12542;PMS3003;6337;49.556;25.594;2023-03-01T19:10:12;25.35;14.18;
12542;PMS3003;6337;49.556;25.594;2023-03-01T19:12:39;38.63;15.80;
12542;PMS3003;6337;49.556;25.594;2023-03-01T19:15:22;35.10;16.07;
12542;PMS3003;6337;49.556;25.594;2023-03-01T19:17:50;26.30;16.60;
12542;PMS3003;6337;49.556;25.594;2023-03-01T19:20:25;36.45;20.17;
12542;PMS3003;6337;49.556;25.594;2023-03-01T19:22:54;45.83;23.23;
12542;PMS3003;6337;49.556;25.594;2023-03-01T19:25:22;51.00;26.60;
12542;PMS3003;6337;49.556;25.594;2023-03-01T19:27:49;60.93;26.43;
12542;PMS3003;6337;49.556;25.594;2023-03-01T19:30:21;44.90;23.70;
12542;PMS3003;6337;49.556;25.594;2023-03-01T19:32:49;45.72;24.25;
12542;PMS3003;6337;49.556;25.594;2023-03-01T19:35:19;30.03;19.20;
12542;PMS3003;6337;49.556;25.594;2023-03-01T19:40:41;36.15;16.98;
12542;PMS3003;6337;49.556;25.594;2023-03-01T19:43:09;27.05;16.10;
12542;PMS3003;6337;49.556;25.594;2023-03-01T19:45:50;29.70;16.75;
12542;PMS3003;6337;49.556;25.594;2023-03-01T19:52:03;35.63;17.30;
12542;PMS3003;6337;49.556;25.594;2023-03-01T19:54:36;30.33;16.33;
12542;PMS3003;6337;49.556;25.594;2023-03-01T19:57:04;26.95;15.50;
12542;PMS3003;6337;49.556;25.594;2023-03-01T19:59:32;23.90;14.38;
12542;PMS3003;6337;49.556;25.594;2023-03-01T20:02:10;27.85;15.25;
12542;PMS3003;6337;49.556;25.594;2023-03-01T20:04:40;21.85;12.70;
12542;PMS3003;6337;49.556;25.594;2023-03-01T20:07:12;30.35;15.13;
12542;PMS3003;6337;49.556;25.594;2023-03-01T20:09:40;21.65;12.05;
12542;PMS3003;6337;49.556;25.594;2023-03-01T20:12:10;25.65;13.00;
12542;PMS3003;6337;49.556;25.594;2023-03-01T20:14:46;19.70;12.38;
12542;PMS3003;6337;49.556;25.594;2023-03-01T20:17:23;21.90;11.73;
12542;PMS3003;6337;49.556;25.594;2023-03-01T20:19:53;23.73;12.43;
12542;PMS3003;6337;49.556;25.594;2023-03-01T20:22:21;23.00;12.35;
12542;PMS3003;6337;49.556;25.594;2023-03-01T20:24:52;20.42;12.40;
12542;PMS3003;6337;49.556;25.594;2023-03-01T20:27:22;19.83;13.13;
12542;PMS3003;6337;49.556;25.594;2023-03-01T20:29:53;21.35;13.02;
12542;PMS3003;6337;49.556;25.594;2023-03-01T20:32:25;17.33;11.75;
12542;PMS3003;6337;49.556;25.594;2023-03-01T20:34:54;20.25;14.00;
12542;PMS3003;6337;49.556;25.594;2023-03-01T20:37:25;24.88;14.75;
12542;PMS3003;6337;49.556;25.594;2023-03-01T20:39:59;28.25;14.32;
12542;PMS3003;6337;49.556;25.594;2023-03-01T20:42:32;26.13;13.75;
12542;PMS3003;6337;49.556;25.594;2023-03-01T20:45:01;30.48;14.75;
12542;PMS3003;6337;49.556;25.594;2023-03-01T20:47:33;22.13;13.07;
12542;PMS3003;6337;49.556;25.594;2023-03-01T20:50:18;21.65;13.00;
12542;PMS3003;6337;49.556;25.594;2023-03-01T20:52:47;24.15;14.45;
12542;PMS3003;6337;49.556;25.594;2023-03-01T20:55:30;22.15;13.90;
12542;PMS3003;6337;49.556;25.594;2023-03-01T20:58:06;24.10;14.35;
12542;PMS3003;6337;49.556;25.594;2023-03-01T21:00:40;19.33;13.27;
12542;PMS3003;6337;49.556;25.594;2023-03-01T21:03:10;39.17;17.30;
12542;PMS3003;6337;49.556;25.594;2023-03-01T21:05:48;30.50;14.82;
12542;PMS3003;6337;49.556;25.594;2023-03-01T21:08:17;30.42;16.05;
12542;PMS3003;6337;49.556;25.594;2023-03-01T22:10:52;31.10;17.10;
12542;PMS3003;6337;49.556;25.594;2023-03-01T22:23:15;34.05;20.05;
12542;PMS3003;6337;49.556;25.594;2023-03-01T22:26:19;34.92;20.38;
12542;PMS3003;6337;49.556;25.594;2023-03-01T22:38:26;42.38;21.38;
12542;PMS3003;6337;49.556;25.594;2023-03-01T22:40:55;39.35;21.70;
12542;PMS3003;6337;49.556;25.594;2023-03-01T22:43:25;37.55;21.70;
12542;PMS3003;6337;49.556;25.594;2023-03-01T22:45:54;41.05;21.70;
12542;PMS3003;6337;49.556;25.594;2023-03-01T22:48:46;47.85;22.58;
12542;PMS3003;6337;49.556;25.594;2023-03-01T22:54:17;36.45;21.35;
12542;PMS3003;6337;49.556;25.594;2023-03-01T23:12:23;37.30;20.08;
12542;PMS3003;6337;49.556;25.594;2023-03-01T23:18:02;42.55;21.88;
12542;PMS3003;6337;49.556;25.594;2023-03-01T23:23:38;52.17;20.75;
12542;PMS3003;6337;49.556;25.594;2023-03-01T23:26:08;42.83;21.92;
12542;PMS3003;6337;49.556;25.594;2023-03-01T23:34:06;45.70;19.63;
12542;PMS3003;6337;49.556;25.594;2023-03-01T23:36:34;37.95;19.73;
12542;PMS3003;6337;49.556;25.594;2023-03-01T23:39:05;41.92;21.67;
12542;PMS3003;6337;49.556;25.594;2023-03-01T23:41:39;38.13;21.50;
12542;PMS3003;6337;49.556;25.594;2023-03-01T23:44:09;41.42;20.17;
12542;PMS3003;6337;49.556;25.594;2023-03-01T23:46:38;39.40;19.00;
12542;PMS3003;6337;49.556;25.594;2023-03-01T23:49:16;39.90;19.00;
12542;PMS3003;6337;49.556;25.594;2023-03-01T23:51:45;31.75;18.75;
12542;PMS3003;6337;49.556;25.594;2023-03-01T23:54:15;37.13;18.92;
12542;PMS3003;6337;49.556;25.594;2023-03-01T23:56:44;32.05;20.23;
12542;PMS3003;6337;49.556;25.594;2023-03-01T23:59:13;36.80;19.00;
